Terminal Aerodrome Forecast
Issued by NWS Wilmington, OH

Current Version | Previous Version | Graphics & Text | Print | Product List | Glossary On
Versions: 1 2 3 4 5 6 7 8 9 10 11 12 13 14 15 16 17 18 19 20
000
FTUS41 KILN 191100
TAFILN
TAF
KILN 191125Z 1912/2012 17011G18KT P6SM SCT060 BKN110
     FM191400 18017G27KT P6SM SCT060 SCT100
     FM191900 21021G30KT P6SM SCT035 BKN100
     FM192100 22018G28KT P6SM VCSH OVC030
     FM192300 24016KT 6SM -SHSN OVC015
     FM200400 24014KT P6SM OVC025=

USA.gov is the U.S. government's official web portal to all federal, state and local government web resources and services.